sensor_id;sensor_type;location;lat;lon;timestamp;P1;durP1;ratioP1;P2;durP2;ratioP2
912;SDS011;443;51.448;7.028;2023-10-08T00:02:16;6.33;;;3.63;;
912;SDS011;443;51.448;7.028;2023-10-08T00:04:47;3.73;;;2.70;;
912;SDS011;443;51.448;7.028;2023-10-08T00:07:15;6.13;;;3.40;;
912;SDS011;443;51.448;7.028;2023-10-08T00:09:46;5.80;;;3.00;;
912;SDS011;443;51.448;7.028;2023-10-08T00:12:13;6.70;;;3.90;;
912;SDS011;443;51.448;7.028;2023-10-08T00:14:41;5.40;;;2.60;;
912;SDS011;443;51.448;7.028;2023-10-08T00:17:11;7.40;;;4.00;;
912;SDS011;443;51.448;7.028;2023-10-08T00:19:39;5.20;;;3.10;;
912;SDS011;443;51.448;7.028;2023-10-08T00:22:07;4.40;;;2.23;;
912;SDS011;443;51.448;7.028;2023-10-08T00:24:35;7.00;;;3.70;;
912;SDS011;443;51.448;7.028;2023-10-08T00:27:06;7.30;;;3.90;;
912;SDS011;443;51.448;7.028;2023-10-08T00:29:33;7.30;;;3.07;;
912;SDS011;443;51.448;7.028;2023-10-08T00:32:04;7.50;;;3.97;;
912;SDS011;443;51.448;7.028;2023-10-08T00:34:38;5.97;;;2.93;;
912;SDS011;443;51.448;7.028;2023-10-08T00:37:08;3.80;;;2.30;;
912;SDS011;443;51.448;7.028;2023-10-08T00:39:35;5.60;;;2.70;;
912;SDS011;443;51.448;7.028;2023-10-08T00:42:05;6.00;;;3.83;;
912;SDS011;443;51.448;7.028;2023-10-08T00:44:32;4.87;;;3.00;;
912;SDS011;443;51.448;7.028;2023-10-08T00:47:06;8.67;;;4.00;;
912;SDS011;443;51.448;7.028;2023-10-08T00:49:38;4.60;;;3.53;;
912;SDS011;443;51.448;7.028;2023-10-08T00:52:13;5.23;;;3.07;;
912;SDS011;443;51.448;7.028;2023-10-08T00:54:54;6.43;;;3.77;;
912;SDS011;443;51.448;7.028;2023-10-08T00:57:32;10.63;;;3.70;;
912;SDS011;443;51.448;7.028;2023-10-08T01:00:01;7.17;;;3.60;;
912;SDS011;443;51.448;7.028;2023-10-08T01:02:31;8.30;;;2.97;;
912;SDS011;443;51.448;7.028;2023-10-08T01:05:12;6.20;;;2.90;;
912;SDS011;443;51.448;7.028;2023-10-08T01:07:40;7.80;;;3.60;;
912;SDS011;443;51.448;7.028;2023-10-08T01:10:10;6.87;;;3.60;;
912;SDS011;443;51.448;7.028;2023-10-08T01:12:44;3.97;;;2.70;;
912;SDS011;443;51.448;7.028;2023-10-08T01:15:20;8.23;;;3.60;;
912;SDS011;443;51.448;7.028;2023-10-08T01:17:53;4.73;;;3.00;;
912;SDS011;443;51.448;7.028;2023-10-08T01:20:25;10.13;;;4.47;;
912;SDS011;443;51.448;7.028;2023-10-08T01:23:05;5.07;;;3.20;;
912;SDS011;443;51.448;7.028;2023-10-08T01:25:38;10.67;;;3.87;;
912;SDS011;443;51.448;7.028;2023-10-08T01:28:06;6.83;;;3.20;;
912;SDS011;443;51.448;7.028;2023-10-08T01:30:41;6.60;;;3.30;;
912;SDS011;443;51.448;7.028;2023-10-08T01:33:11;5.60;;;3.77;;
912;SDS011;443;51.448;7.028;2023-10-08T01:35:39;7.40;;;2.90;;
912;SDS011;443;51.448;7.028;2023-10-08T01:38:08;8.30;;;3.93;;
912;SDS011;443;51.448;7.028;2023-10-08T01:40:39;5.60;;;3.03;;
912;SDS011;443;51.448;7.028;2023-10-08T01:43:06;4.33;;;2.87;;
912;SDS011;443;51.448;7.028;2023-10-08T01:45:35;6.30;;;3.67;;
912;SDS011;443;51.448;7.028;2023-10-08T01:48:05;6.13;;;2.80;;
912;SDS011;443;51.448;7.028;2023-10-08T01:50:34;5.07;;;2.60;;
912;SDS011;443;51.448;7.028;2023-10-08T01:53:01;8.63;;;3.77;;
912;SDS011;443;51.448;7.028;2023-10-08T01:55:31;9.13;;;3.20;;
912;SDS011;443;51.448;7.028;2023-10-08T01:58:10;3.27;;;2.53;;
912;SDS011;443;51.448;7.028;2023-10-08T02:00:41;4.47;;;2.80;;
912;SDS011;443;51.448;7.028;2023-10-08T02:03:10;11.37;;;3.70;;
912;SDS011;443;51.448;7.028;2023-10-08T02:05:38;7.00;;;3.50;;
912;SDS011;443;51.448;7.028;2023-10-08T02:08:07;8.87;;;3.40;;
912;SDS011;443;51.448;7.028;2023-10-08T02:10:35;5.83;;;3.63;;
912;SDS011;443;51.448;7.028;2023-10-08T02:13:03;6.50;;;3.87;;
912;SDS011;443;51.448;7.028;2023-10-08T02:15:31;4.80;;;3.30;;
912;SDS011;443;51.448;7.028;2023-10-08T02:17:57;8.10;;;3.20;;
912;SDS011;443;51.448;7.028;2023-10-08T02:20:24;5.67;;;2.67;;
912;SDS011;443;51.448;7.028;2023-10-08T02:22:52;5.97;;;2.20;;
912;SDS011;443;51.448;7.028;2023-10-08T02:25:19;9.17;;;3.87;;
912;SDS011;443;51.448;7.028;2023-10-08T02:27:47;6.27;;;3.70;;
912;SDS011;443;51.448;7.028;2023-10-08T02:30:14;5.23;;;3.50;;
912;SDS011;443;51.448;7.028;2023-10-08T02:32:42;5.90;;;2.10;;
912;SDS011;443;51.448;7.028;2023-10-08T02:35:10;5.73;;;3.37;;
912;SDS011;443;51.448;7.028;2023-10-08T02:37:38;6.63;;;3.60;;
912;SDS011;443;51.448;7.028;2023-10-08T02:40:06;9.83;;;3.43;;
912;SDS011;443;51.448;7.028;2023-10-08T02:42:41;8.10;;;3.37;;
912;SDS011;443;51.448;7.028;2023-10-08T02:45:10;8.17;;;4.70;;
912;SDS011;443;51.448;7.028;2023-10-08T02:47:39;10.03;;;4.07;;
912;SDS011;443;51.448;7.028;2023-10-08T02:50:07;8.47;;;3.93;;
912;SDS011;443;51.448;7.028;2023-10-08T02:52:36;7.33;;;4.13;;
912;SDS011;443;51.448;7.028;2023-10-08T02:55:03;5.00;;;3.57;;
912;SDS011;443;51.448;7.028;2023-10-08T02:57:37;4.73;;;3.20;;
912;SDS011;443;51.448;7.028;2023-10-08T03:00:11;5.27;;;2.80;;
912;SDS011;443;51.448;7.028;2023-10-08T03:02:39;8.80;;;4.13;;
912;SDS011;443;51.448;7.028;2023-10-08T03:05:06;10.60;;;3.23;;
912;SDS011;443;51.448;7.028;2023-10-08T03:07:38;4.93;;;3.27;;
912;SDS011;443;51.448;7.028;2023-10-08T03:10:05;7.20;;;4.07;;
912;SDS011;443;51.448;7.028;2023-10-08T03:12:42;9.97;;;3.73;;
912;SDS011;443;51.448;7.028;2023-10-08T03:15:12;6.77;;;3.50;;
912;SDS011;443;51.448;7.028;2023-10-08T03:17:53;7.03;;;3.17;;
912;SDS011;443;51.448;7.028;2023-10-08T03:20:22;12.20;;;3.43;;
912;SDS011;443;51.448;7.028;2023-10-08T03:23:07;5.67;;;3.97;;
912;SDS011;443;51.448;7.028;2023-10-08T03:25:49;4.73;;;3.07;;
912;SDS011;443;51.448;7.028;2023-10-08T03:28:22;12.03;;;4.10;;
912;SDS011;443;51.448;7.028;2023-10-08T03:30:51;4.43;;;2.40;;
912;SDS011;443;51.448;7.028;2023-10-08T03:33:27;6.30;;;4.07;;
912;SDS011;443;51.448;7.028;2023-10-08T03:35:54;14.17;;;4.70;;
912;SDS011;443;51.448;7.028;2023-10-08T03:38:21;7.50;;;3.73;;
912;SDS011;443;51.448;7.028;2023-10-08T03:40:53;4.30;;;3.20;;
912;SDS011;443;51.448;7.028;2023-10-08T03:43:29;4.97;;;2.80;;
912;SDS011;443;51.448;7.028;2023-10-08T03:46:13;11.23;;;3.33;;
912;SDS011;443;51.448;7.028;2023-10-08T03:48:41;9.90;;;4.30;;
912;SDS011;443;51.448;7.028;2023-10-08T03:51:10;7.20;;;3.20;;
912;SDS011;443;51.448;7.028;2023-10-08T03:53:37;6.60;;;3.27;;
912;SDS011;443;51.448;7.028;2023-10-08T03:56:22;5.03;;;2.83;;
912;SDS011;443;51.448;7.028;2023-10-08T03:58:50;6.00;;;3.40;;
912;SDS011;443;51.448;7.028;2023-10-08T04:01:20;5.70;;;3.13;;
912;SDS011;443;51.448;7.028;2023-10-08T04:03:49;9.53;;;3.87;;
912;SDS011;443;51.448;7.028;2023-10-08T04:06:24;6.07;;;2.93;;
912;SDS011;443;51.448;7.028;2023-10-08T04:08:55;8.10;;;3.63;;
912;SDS011;443;51.448;7.028;2023-10-08T04:11:36;5.50;;;3.07;;
912;SDS011;443;51.448;7.028;2023-10-08T04:14:16;7.23;;;3.60;;
912;SDS011;443;51.448;7.028;2023-10-08T04:16:45;8.20;;;2.90;;
912;SDS011;443;51.448;7.028;2023-10-08T04:19:16;7.33;;;3.60;;
912;SDS011;443;51.448;7.028;2023-10-08T04:21:44;6.33;;;3.43;;
912;SDS011;443;51.448;7.028;2023-10-08T04:24:19;7.90;;;3.43;;
912;SDS011;443;51.448;7.028;2023-10-08T04:26:53;7.27;;;3.27;;
912;SDS011;443;51.448;7.028;2023-10-08T04:29:23;5.47;;;3.30;;
912;SDS011;443;51.448;7.028;2023-10-08T04:31:52;8.00;;;3.40;;
912;SDS011;443;51.448;7.028;2023-10-08T04:34:32;5.40;;;2.97;;
912;SDS011;443;51.448;7.028;2023-10-08T04:37:00;4.90;;;3.37;;
912;SDS011;443;51.448;7.028;2023-10-08T04:39:29;6.00;;;3.63;;
912;SDS011;443;51.448;7.028;2023-10-08T04:41:58;7.17;;;3.50;;
912;SDS011;443;51.448;7.028;2023-10-08T04:44:31;7.03;;;3.40;;
912;SDS011;443;51.448;7.028;2023-10-08T04:47:00;6.23;;;2.70;;
912;SDS011;443;51.448;7.028;2023-10-08T04:49:31;7.90;;;3.83;;
912;SDS011;443;51.448;7.028;2023-10-08T04:52:00;4.30;;;3.03;;
912;SDS011;443;51.448;7.028;2023-10-08T04:54:33;6.47;;;3.27;;
912;SDS011;443;51.448;7.028;2023-10-08T04:57:05;6.77;;;3.40;;
912;SDS011;443;51.448;7.028;2023-10-08T04:59:40;9.60;;;4.30;;
912;SDS011;443;51.448;7.028;2023-10-08T05:02:09;4.03;;;2.63;;
912;SDS011;443;51.448;7.028;2023-10-08T05:04:44;9.17;;;3.27;;
912;SDS011;443;51.448;7.028;2023-10-08T05:07:32;10.80;;;3.30;;
912;SDS011;443;51.448;7.028;2023-10-08T05:10:22;6.43;;;3.40;;
912;SDS011;443;51.448;7.028;2023-10-08T05:13:06;7.67;;;3.30;;
912;SDS011;443;51.448;7.028;2023-10-08T05:15:41;5.90;;;2.57;;
912;SDS011;443;51.448;7.028;2023-10-08T05:18:16;8.93;;;3.40;;
912;SDS011;443;51.448;7.028;2023-10-08T05:21:03;7.13;;;3.07;;
912;SDS011;443;51.448;7.028;2023-10-08T05:23:49;5.57;;;3.20;;
912;SDS011;443;51.448;7.028;2023-10-08T05:26:40;8.83;;;2.60;;
912;SDS011;443;51.448;7.028;2023-10-08T05:29:14;7.40;;;3.20;;
912;SDS011;443;51.448;7.028;2023-10-08T05:31:59;5.77;;;3.87;;
912;SDS011;443;51.448;7.028;2023-10-08T05:34:41;5.47;;;2.70;;
912;SDS011;443;51.448;7.028;2023-10-08T05:37:37;9.30;;;3.60;;
912;SDS011;443;51.448;7.028;2023-10-08T05:40:08;7.50;;;3.00;;
912;SDS011;443;51.448;7.028;2023-10-08T05:42:59;5.57;;;3.27;;
912;SDS011;443;51.448;7.028;2023-10-08T05:45:38;4.90;;;3.30;;
912;SDS011;443;51.448;7.028;2023-10-08T05:48:17;9.90;;;4.30;;
912;SDS011;443;51.448;7.028;2023-10-08T05:50:53;5.93;;;3.43;;
912;SDS011;443;51.448;7.028;2023-10-08T05:53:37;6.27;;;3.37;;
912;SDS011;443;51.448;7.028;2023-10-08T05:56:08;6.03;;;3.53;;
912;SDS011;443;51.448;7.028;2023-10-08T05:58:53;7.70;;;3.67;;
912;SDS011;443;51.448;7.028;2023-10-08T06:01:39;9.53;;;3.53;;
912;SDS011;443;51.448;7.028;2023-10-08T06:04:07;6.77;;;4.03;;
912;SDS011;443;51.448;7.028;2023-10-08T06:07:08;6.83;;;3.80;;
912;SDS011;443;51.448;7.028;2023-10-08T06:09:42;13.80;;;3.20;;
912;SDS011;443;51.448;7.028;2023-10-08T06:12:26;8.53;;;4.17;;
912;SDS011;443;51.448;7.028;2023-10-08T06:14:55;9.60;;;3.13;;
912;SDS011;443;51.448;7.028;2023-10-08T06:17:34;6.73;;;2.67;;
912;SDS011;443;51.448;7.028;2023-10-08T06:20:21;5.23;;;2.93;;
912;SDS011;443;51.448;7.028;2023-10-08T06:22:53;13.33;;;3.83;;
912;SDS011;443;51.448;7.028;2023-10-08T06:25:26;6.07;;;3.27;;
912;SDS011;443;51.448;7.028;2023-10-08T06:27:53;5.70;;;2.80;;
912;SDS011;443;51.448;7.028;2023-10-08T06:30:21;8.30;;;3.80;;
912;SDS011;443;51.448;7.028;2023-10-08T06:32:49;5.60;;;3.30;;
912;SDS011;443;51.448;7.028;2023-10-08T06:35:18;5.10;;;2.67;;
912;SDS011;443;51.448;7.028;2023-10-08T06:37:50;8.30;;;3.37;;
912;SDS011;443;51.448;7.028;2023-10-08T06:40:21;6.23;;;3.83;;
912;SDS011;443;51.448;7.028;2023-10-08T06:43:11;8.60;;;4.10;;
912;SDS011;443;51.448;7.028;2023-10-08T06:45:39;10.60;;;3.80;;
912;SDS011;443;51.448;7.028;2023-10-08T06:48:08;7.47;;;3.37;;
912;SDS011;443;51.448;7.028;2023-10-08T06:50:35;5.13;;;3.07;;
912;SDS011;443;51.448;7.028;2023-10-08T06:53:02;5.63;;;3.20;;
912;SDS011;443;51.448;7.028;2023-10-08T06:55:34;5.17;;;3.47;;
912;SDS011;443;51.448;7.028;2023-10-08T06:58:01;13.10;;;3.67;;
912;SDS011;443;51.448;7.028;2023-10-08T07:00:34;7.13;;;2.67;;
912;SDS011;443;51.448;7.028;2023-10-08T07:03:08;5.97;;;3.37;;
912;SDS011;443;51.448;7.028;2023-10-08T07:05:36;7.43;;;3.70;;
912;SDS011;443;51.448;7.028;2023-10-08T07:08:06;6.60;;;3.30;;
912;SDS011;443;51.448;7.028;2023-10-08T07:10:35;6.33;;;4.37;;
912;SDS011;443;51.448;7.028;2023-10-08T07:13:02;8.67;;;3.20;;
912;SDS011;443;51.448;7.028;2023-10-08T07:15:32;8.60;;;3.30;;
912;SDS011;443;51.448;7.028;2023-10-08T07:18:03;4.77;;;3.00;;
912;SDS011;443;51.448;7.028;2023-10-08T07:20:35;5.73;;;3.73;;
912;SDS011;443;51.448;7.028;2023-10-08T07:23:05;8.17;;;3.87;;
912;SDS011;443;51.448;7.028;2023-10-08T07:25:45;8.80;;;3.00;;
912;SDS011;443;51.448;7.028;2023-10-08T07:28:17;8.37;;;3.93;;
912;SDS011;443;51.448;7.028;2023-10-08T07:30:44;6.90;;;2.93;;
912;SDS011;443;51.448;7.028;2023-10-08T07:33:13;6.23;;;4.03;;
912;SDS011;443;51.448;7.028;2023-10-08T07:35:44;8.83;;;5.17;;
912;SDS011;443;51.448;7.028;2023-10-08T07:38:18;7.40;;;4.00;;
912;SDS011;443;51.448;7.028;2023-10-08T07:40:48;11.33;;;4.50;;
912;SDS011;443;51.448;7.028;2023-10-08T07:43:15;12.67;;;4.43;;
912;SDS011;443;51.448;7.028;2023-10-08T07:45:45;8.87;;;4.93;;
912;SDS011;443;51.448;7.028;2023-10-08T07:48:12;14.73;;;5.67;;
912;SDS011;443;51.448;7.028;2023-10-08T07:50:40;12.43;;;4.93;;
912;SDS011;443;51.448;7.028;2023-10-08T07:53:09;8.60;;;4.33;;
912;SDS011;443;51.448;7.028;2023-10-08T07:55:43;9.07;;;4.10;;
912;SDS011;443;51.448;7.028;2023-10-08T07:58:12;5.23;;;4.00;;
912;SDS011;443;51.448;7.028;2023-10-08T08:00:40;19.70;;;6.40;;
912;SDS011;443;51.448;7.028;2023-10-08T08:03:07;16.53;;;9.53;;
912;SDS011;443;51.448;7.028;2023-10-08T08:05:34;13.30;;;7.03;;
912;SDS011;443;51.448;7.028;2023-10-08T08:08:03;16.90;;;7.10;;
912;SDS011;443;51.448;7.028;2023-10-08T08:10:31;13.43;;;7.30;;
912;SDS011;443;51.448;7.028;2023-10-08T08:13:02;27.27;;;7.53;;
912;SDS011;443;51.448;7.028;2023-10-08T08:15:32;14.77;;;6.70;;
912;SDS011;443;51.448;7.028;2023-10-08T08:17:59;9.80;;;5.73;;
912;SDS011;443;51.448;7.028;2023-10-08T08:20:30;8.93;;;5.17;;
912;SDS011;443;51.448;7.028;2023-10-08T08:23:04;3.87;;;2.50;;
912;SDS011;443;51.448;7.028;2023-10-08T08:25:35;6.20;;;3.60;;
912;SDS011;443;51.448;7.028;2023-10-08T08:28:10;4.30;;;2.93;;
912;SDS011;443;51.448;7.028;2023-10-08T08:30:43;5.67;;;2.80;;
912;SDS011;443;51.448;7.028;2023-10-08T08:33:12;5.63;;;3.00;;
912;SDS011;443;51.448;7.028;2023-10-08T08:35:47;6.30;;;3.63;;
912;SDS011;443;51.448;7.028;2023-10-08T08:38:13;5.47;;;3.80;;
912;SDS011;443;51.448;7.028;2023-10-08T08:40:40;4.10;;;2.70;;
912;SDS011;443;51.448;7.028;2023-10-08T08:43:07;7.40;;;3.07;;
912;SDS011;443;51.448;7.028;2023-10-08T08:45:36;5.30;;;3.53;;
912;SDS011;443;51.448;7.028;2023-10-08T08:48:07;7.27;;;3.10;;
912;SDS011;443;51.448;7.028;2023-10-08T08:50:34;3.57;;;3.27;;
912;SDS011;443;51.448;7.028;2023-10-08T08:53:02;9.20;;;3.60;;
912;SDS011;443;51.448;7.028;2023-10-08T08:55:30;5.23;;;3.30;;
912;SDS011;443;51.448;7.028;2023-10-08T08:57:58;6.03;;;4.00;;
912;SDS011;443;51.448;7.028;2023-10-08T09:00:27;4.83;;;3.10;;
912;SDS011;443;51.448;7.028;2023-10-08T09:02:56;3.90;;;2.23;;
912;SDS011;443;51.448;7.028;2023-10-08T09:05:24;8.20;;;3.90;;
912;SDS011;443;51.448;7.028;2023-10-08T09:07:51;6.00;;;3.73;;
912;SDS011;443;51.448;7.028;2023-10-08T09:10:20;9.00;;;5.03;;
912;SDS011;443;51.448;7.028;2023-10-08T09:12:53;10.33;;;6.20;;
912;SDS011;443;51.448;7.028;2023-10-08T09:15:23;21.03;;;5.90;;
912;SDS011;443;51.448;7.028;2023-10-08T09:17:51;13.30;;;7.87;;
912;SDS011;443;51.448;7.028;2023-10-08T09:20:19;20.20;;;10.97;;
912;SDS011;443;51.448;7.028;2023-10-08T09:22:48;16.83;;;9.90;;
912;SDS011;443;51.448;7.028;2023-10-08T09:25:32;8.30;;;5.67;;
912;SDS011;443;51.448;7.028;2023-10-08T09:27:59;8.43;;;5.37;;
912;SDS011;443;51.448;7.028;2023-10-08T09:30:28;11.93;;;7.73;;
912;SDS011;443;51.448;7.028;2023-10-08T09:32:55;13.00;;;6.87;;
912;SDS011;443;51.448;7.028;2023-10-08T09:35:22;9.73;;;5.70;;
912;SDS011;443;51.448;7.028;2023-10-08T09:37:52;11.70;;;7.37;;
912;SDS011;443;51.448;7.028;2023-10-08T09:40:20;5.93;;;4.00;;
912;SDS011;443;51.448;7.028;2023-10-08T09:42:47;7.03;;;5.53;;
912;SDS011;443;51.448;7.028;2023-10-08T09:45:14;9.00;;;7.37;;
912;SDS011;443;51.448;7.028;2023-10-08T09:47:42;6.90;;;4.63;;
912;SDS011;443;51.448;7.028;2023-10-08T09:50:14;6.03;;;5.20;;
912;SDS011;443;51.448;7.028;2023-10-08T09:52:47;6.77;;;4.80;;
912;SDS011;443;51.448;7.028;2023-10-08T09:55:23;6.17;;;4.40;;
912;SDS011;443;51.448;7.028;2023-10-08T09:57:51;7.33;;;4.33;;
912;SDS011;443;51.448;7.028;2023-10-08T10:00:20;10.30;;;4.10;;
912;SDS011;443;51.448;7.028;2023-10-08T10:02:55;6.70;;;3.57;;
912;SDS011;443;51.448;7.028;2023-10-08T10:05:27;5.10;;;4.07;;
912;SDS011;443;51.448;7.028;2023-10-08T10:07:56;5.60;;;3.30;;
912;SDS011;443;51.448;7.028;2023-10-08T10:10:27;6.10;;;4.07;;
912;SDS011;443;51.448;7.028;2023-10-08T10:12:57;8.50;;;4.77;;
912;SDS011;443;51.448;7.028;2023-10-08T10:15:25;8.53;;;3.53;;
912;SDS011;443;51.448;7.028;2023-10-08T10:17:54;7.93;;;5.00;;
912;SDS011;443;51.448;7.028;2023-10-08T10:20:24;4.10;;;3.27;;
912;SDS011;443;51.448;7.028;2023-10-08T10:22:52;7.67;;;4.67;;
912;SDS011;443;51.448;7.028;2023-10-08T10:25:33;6.40;;;3.27;;
912;SDS011;443;51.448;7.028;2023-10-08T10:28:23;4.00;;;2.50;;
912;SDS011;443;51.448;7.028;2023-10-08T10:30:50;2.47;;;1.83;;
912;SDS011;443;51.448;7.028;2023-10-08T10:33:17;2.60;;;2.17;;
912;SDS011;443;51.448;7.028;2023-10-08T10:35:49;4.70;;;1.90;;
912;SDS011;443;51.448;7.028;2023-10-08T10:38:18;4.60;;;2.97;;
912;SDS011;443;51.448;7.028;2023-10-08T10:40:49;3.73;;;0.87;;
912;SDS011;443;51.448;7.028;2023-10-08T10:43:22;2.40;;;1.90;;
912;SDS011;443;51.448;7.028;2023-10-08T10:45:57;2.77;;;1.90;;
912;SDS011;443;51.448;7.028;2023-10-08T10:48:25;1.70;;;1.03;;
912;SDS011;443;51.448;7.028;2023-10-08T10:50:59;2.00;;;1.33;;
912;SDS011;443;51.448;7.028;2023-10-08T10:53:35;0.73;;;0.50;;
912;SDS011;443;51.448;7.028;2023-10-08T10:56:12;2.40;;;1.50;;
912;SDS011;443;51.448;7.028;2023-10-08T10:58:44;3.33;;;3.03;;
912;SDS011;443;51.448;7.028;2023-10-08T11:01:18;3.23;;;1.63;;
912;SDS011;443;51.448;7.028;2023-10-08T11:03:49;2.30;;;1.40;;
912;SDS011;443;51.448;7.028;2023-10-08T11:06:17;2.70;;;1.67;;
912;SDS011;443;51.448;7.028;2023-10-08T11:08:48;2.67;;;0.67;;
912;SDS011;443;51.448;7.028;2023-10-08T11:11:18;1.90;;;0.97;;
912;SDS011;443;51.448;7.028;2023-10-08T11:13:45;2.40;;;1.00;;
912;SDS011;443;51.448;7.028;2023-10-08T11:16:17;1.27;;;0.77;;
912;SDS011;443;51.448;7.028;2023-10-08T11:18:46;4.20;;;1.70;;
912;SDS011;443;51.448;7.028;2023-10-08T11:21:15;1.93;;;0.80;;
912;SDS011;443;51.448;7.028;2023-10-08T11:23:48;1.40;;;0.93;;
912;SDS011;443;51.448;7.028;2023-10-08T11:26:22;1.67;;;0.63;;
912;SDS011;443;51.448;7.028;2023-10-08T11:28:57;2.70;;;0.80;;
912;SDS011;443;51.448;7.028;2023-10-08T11:31:25;1.90;;;1.00;;
912;SDS011;443;51.448;7.028;2023-10-08T11:33:58;2.63;;;1.40;;
912;SDS011;443;51.448;7.028;2023-10-08T11:36:27;1.07;;;0.70;;
912;SDS011;443;51.448;7.028;2023-10-08T11:38:56;3.10;;;1.00;;
912;SDS011;443;51.448;7.028;2023-10-08T11:41:28;1.10;;;0.90;;
912;SDS011;443;51.448;7.028;2023-10-08T11:43:55;2.00;;;0.93;;
912;SDS011;443;51.448;7.028;2023-10-08T11:46:24;1.97;;;1.03;;
912;SDS011;443;51.448;7.028;2023-10-08T11:48:52;1.50;;;0.80;;
912;SDS011;443;51.448;7.028;2023-10-08T11:51:22;4.17;;;1.10;;
912;SDS011;443;51.448;7.028;2023-10-08T11:53:50;3.40;;;1.50;;
912;SDS011;443;51.448;7.028;2023-10-08T11:56:18;1.57;;;1.10;;
912;SDS011;443;51.448;7.028;2023-10-08T11:58:49;2.47;;;1.00;;
912;SDS011;443;51.448;7.028;2023-10-08T12:01:17;1.40;;;1.03;;
912;SDS011;443;51.448;7.028;2023-10-08T12:03:45;2.27;;;1.30;;
912;SDS011;443;51.448;7.028;2023-10-08T12:06:14;2.57;;;1.27;;
912;SDS011;443;51.448;7.028;2023-10-08T12:08:43;3.93;;;1.57;;
912;SDS011;443;51.448;7.028;2023-10-08T12:11:14;1.63;;;0.90;;
912;SDS011;443;51.448;7.028;2023-10-08T12:13:41;1.90;;;1.20;;
912;SDS011;443;51.448;7.028;2023-10-08T12:16:12;10.70;;;2.17;;
912;SDS011;443;51.448;7.028;2023-10-08T12:18:46;1.20;;;0.90;;
912;SDS011;443;51.448;7.028;2023-10-08T12:21:18;1.50;;;0.90;;
912;SDS011;443;51.448;7.028;2023-10-08T12:23:45;3.60;;;2.10;;
912;SDS011;443;51.448;7.028;2023-10-08T12:26:12;1.50;;;1.27;;
912;SDS011;443;51.448;7.028;2023-10-08T12:28:43;3.23;;;1.57;;
912;SDS011;443;51.448;7.028;2023-10-08T12:31:12;3.17;;;1.40;;
912;SDS011;443;51.448;7.028;2023-10-08T12:33:40;4.40;;;2.00;;
912;SDS011;443;51.448;7.028;2023-10-08T12:36:09;5.10;;;2.03;;
912;SDS011;443;51.448;7.028;2023-10-08T12:38:37;2.73;;;1.57;;
912;SDS011;443;51.448;7.028;2023-10-08T12:41:04;1.37;;;1.10;;
912;SDS011;443;51.448;7.028;2023-10-08T12:43:37;3.83;;;1.70;;
912;SDS011;443;51.448;7.028;2023-10-08T12:46:07;4.40;;;1.90;;
912;SDS011;443;51.448;7.028;2023-10-08T12:48:37;3.67;;;1.40;;
912;SDS011;443;51.448;7.028;2023-10-08T12:51:04;4.40;;;1.40;;
912;SDS011;443;51.448;7.028;2023-10-08T12:53:31;2.67;;;1.53;;
912;SDS011;443;51.448;7.028;2023-10-08T12:56:02;4.40;;;1.47;;
912;SDS011;443;51.448;7.028;2023-10-08T12:58:32;3.47;;;1.70;;
912;SDS011;443;51.448;7.028;2023-10-08T13:01:06;1.83;;;1.10;;
912;SDS011;443;51.448;7.028;2023-10-08T13:03:34;2.97;;;0.90;;
912;SDS011;443;51.448;7.028;2023-10-08T13:06:06;2.37;;;1.17;;
912;SDS011;443;51.448;7.028;2023-10-08T13:08:36;1.80;;;0.90;;
912;SDS011;443;51.448;7.028;2023-10-08T13:11:04;1.80;;;1.20;;
912;SDS011;443;51.448;7.028;2023-10-08T13:13:31;4.00;;;1.43;;
912;SDS011;443;51.448;7.028;2023-10-08T13:15:58;2.00;;;1.13;;
912;SDS011;443;51.448;7.028;2023-10-08T13:18:29;2.67;;;1.20;;
912;SDS011;443;51.448;7.028;2023-10-08T13:20:59;2.87;;;1.50;;
912;SDS011;443;51.448;7.028;2023-10-08T13:23:26;2.07;;;1.13;;
912;SDS011;443;51.448;7.028;2023-10-08T13:25:53;2.43;;;1.30;;
912;SDS011;443;51.448;7.028;2023-10-08T13:28:20;2.83;;;1.60;;
912;SDS011;443;51.448;7.028;2023-10-08T13:30:47;3.83;;;1.40;;
912;SDS011;443;51.448;7.028;2023-10-08T13:33:17;3.20;;;1.37;;
912;SDS011;443;51.448;7.028;2023-10-08T13:35:44;5.07;;;1.43;;
912;SDS011;443;51.448;7.028;2023-10-08T13:38:16;1.97;;;1.10;;
912;SDS011;443;51.448;7.028;2023-10-08T13:40:45;1.43;;;1.03;;
912;SDS011;443;51.448;7.028;2023-10-08T13:43:27;6.00;;;1.87;;
912;SDS011;443;51.448;7.028;2023-10-08T13:45:58;2.30;;;1.40;;
912;SDS011;443;51.448;7.028;2023-10-08T13:48:29;4.70;;;1.10;;
912;SDS011;443;51.448;7.028;2023-10-08T13:50:57;2.70;;;1.53;;
912;SDS011;443;51.448;7.028;2023-10-08T13:53:27;1.80;;;1.20;;
912;SDS011;443;51.448;7.028;2023-10-08T13:55:55;3.70;;;1.50;;
912;SDS011;443;51.448;7.028;2023-10-08T13:58:24;2.63;;;1.23;;
912;SDS011;443;51.448;7.028;2023-10-08T14:00:51;3.40;;;1.50;;
912;SDS011;443;51.448;7.028;2023-10-08T14:03:18;1.63;;;1.10;;
912;SDS011;443;51.448;7.028;2023-10-08T14:05:46;4.90;;;1.73;;
912;SDS011;443;51.448;7.028;2023-10-08T14:08:15;3.80;;;1.80;;
912;SDS011;443;51.448;7.028;2023-10-08T14:10:44;6.13;;;2.63;;
912;SDS011;443;51.448;7.028;2023-10-08T14:13:13;2.07;;;1.17;;
912;SDS011;443;51.448;7.028;2023-10-08T14:15:44;3.63;;;2.30;;
912;SDS011;443;51.448;7.028;2023-10-08T14:18:13;4.47;;;1.77;;
912;SDS011;443;51.448;7.028;2023-10-08T14:20:42;1.90;;;0.87;;
912;SDS011;443;51.448;7.028;2023-10-08T14:23:12;1.47;;;1.07;;
912;SDS011;443;51.448;7.028;2023-10-08T14:25:41;4.40;;;2.43;;
912;SDS011;443;51.448;7.028;2023-10-08T14:28:11;3.90;;;2.00;;
912;SDS011;443;51.448;7.028;2023-10-08T14:30:47;3.87;;;2.00;;
912;SDS011;443;51.448;7.028;2023-10-08T14:33:18;3.30;;;1.37;;
912;SDS011;443;51.448;7.028;2023-10-08T14:35:51;10.80;;;5.60;;
912;SDS011;443;51.448;7.028;2023-10-08T14:38:36;1.97;;;1.20;;
912;SDS011;443;51.448;7.028;2023-10-08T14:41:22;4.57;;;1.70;;
912;SDS011;443;51.448;7.028;2023-10-08T14:44:06;3.50;;;1.60;;
912;SDS011;443;51.448;7.028;2023-10-08T14:46:33;1.83;;;1.20;;
912;SDS011;443;51.448;7.028;2023-10-08T14:49:02;2.47;;;1.77;;
912;SDS011;443;51.448;7.028;2023-10-08T14:51:34;8.00;;;2.43;;
912;SDS011;443;51.448;7.028;2023-10-08T14:54:05;4.13;;;1.80;;
912;SDS011;443;51.448;7.028;2023-10-08T14:56:34;3.60;;;2.13;;
912;SDS011;443;51.448;7.028;2023-10-08T14:59:02;1.93;;;1.70;;
912;SDS011;443;51.448;7.028;2023-10-08T15:01:29;5.60;;;2.73;;
912;SDS011;443;51.448;7.028;2023-10-08T15:03:58;2.13;;;1.40;;
912;SDS011;443;51.448;7.028;2023-10-08T15:06:28;2.37;;;1.20;;
912;SDS011;443;51.448;7.028;2023-10-08T15:08:56;2.60;;;2.10;;
912;SDS011;443;51.448;7.028;2023-10-08T15:11:23;1.83;;;1.10;;
912;SDS011;443;51.448;7.028;2023-10-08T15:13:51;3.13;;;1.30;;
912;SDS011;443;51.448;7.028;2023-10-08T15:16:20;5.13;;;2.30;;
912;SDS011;443;51.448;7.028;2023-10-08T15:18:47;3.63;;;2.03;;
912;SDS011;443;51.448;7.028;2023-10-08T15:21:16;2.13;;;1.63;;
912;SDS011;443;51.448;7.028;2023-10-08T15:23:43;10.70;;;1.90;;
912;SDS011;443;51.448;7.028;2023-10-08T15:26:10;2.83;;;1.63;;
912;SDS011;443;51.448;7.028;2023-10-08T15:28:37;4.50;;;1.90;;
912;SDS011;443;51.448;7.028;2023-10-08T15:31:05;3.50;;;2.13;;
912;SDS011;443;51.448;7.028;2023-10-08T15:33:32;4.40;;;1.83;;
912;SDS011;443;51.448;7.028;2023-10-08T15:35:59;4.03;;;2.37;;
912;SDS011;443;51.448;7.028;2023-10-08T15:38:26;5.53;;;2.47;;
912;SDS011;443;51.448;7.028;2023-10-08T15:40:53;15.00;;;2.33;;
912;SDS011;443;51.448;7.028;2023-10-08T15:43:19;3.50;;;1.97;;
912;SDS011;443;51.448;7.028;2023-10-08T15:45:46;3.10;;;1.50;;
912;SDS011;443;51.448;7.028;2023-10-08T15:48:14;3.40;;;1.77;;
912;SDS011;443;51.448;7.028;2023-10-08T15:50:41;6.43;;;2.30;;
912;SDS011;443;51.448;7.028;2023-10-08T15:53:08;3.43;;;2.33;;
912;SDS011;443;51.448;7.028;2023-10-08T15:55:34;2.93;;;1.43;;
912;SDS011;443;51.448;7.028;2023-10-08T15:58:01;6.23;;;2.40;;
912;SDS011;443;51.448;7.028;2023-10-08T16:00:28;3.87;;;2.20;;
912;SDS011;443;51.448;7.028;2023-10-08T16:02:55;2.00;;;1.30;;
912;SDS011;443;51.448;7.028;2023-10-08T16:05:23;6.60;;;2.27;;
912;SDS011;443;51.448;7.028;2023-10-08T16:07:49;4.13;;;1.77;;
912;SDS011;443;51.448;7.028;2023-10-08T16:10:17;3.23;;;1.20;;